createdAt,value
2023-01-03T00:00:36.441Z,0.00
2023-01-03T00:01:36.328Z,0.00
2023-01-03T00:02:36.332Z,0.00
2023-01-03T00:03:36.399Z,0.00
2023-01-03T00:04:36.318Z,0.00
2023-01-03T00:05:36.297Z,0.00
2023-01-03T00:06:36.289Z,0.00
2023-01-03T00:07:36.233Z,0.00
2023-01-03T00:08:36.238Z,0.00
2023-01-03T00:09:36.224Z,0.00
2023-01-03T00:10:36.222Z,0.00
2023-01-03T00:11:36.232Z,0.00
2023-01-03T00:12:36.196Z,0.00
2023-01-03T00:13:36.188Z,0.00
2023-01-03T00:14:36.178Z,0.00
2023-01-03T00:15:36.204Z,0.00
2023-01-03T00:16:36.312Z,0.00
2023-01-03T00:17:36.161Z,0.00
2023-01-03T00:18:36.150Z,0.00
2023-01-03T00:19:36.152Z,0.00
2023-01-03T00:20:36.139Z,0.00
2023-01-03T00:21:36.127Z,0.00
2023-01-03T00:22:36.110Z,0.00
2023-01-03T00:23:36.100Z,0.00
2023-01-03T00:24:36.093Z,0.00
2023-01-03T00:25:36.094Z,0.00
2023-01-03T00:26:36.069Z,0.00
2023-01-03T00:27:36.066Z,0.00
2023-01-03T00:28:36.052Z,0.00
2023-01-03T00:29:36.052Z,0.00
2023-01-03T00:30:36.082Z,0.00
2023-01-03T00:31:36.025Z,0.00
2023-01-03T00:32:36.018Z,0.00
2023-01-03T00:33:36.022Z,0.00
2023-01-03T00:34:36.093Z,0.00
2023-01-03T00:35:36.005Z,0.00
2023-01-03T00:36:35.980Z,0.00
2023-01-03T00:37:35.974Z,0.00
2023-01-03T00:38:35.963Z,0.00
2023-01-03T00:39:35.955Z,0.00
2023-01-03T00:40:35.955Z,0.00
2023-01-03T00:41:35.937Z,0.00
2023-01-03T00:42:35.928Z,0.00
2023-01-03T00:43:35.956Z,0.00
2023-01-03T00:44:35.914Z,0.00
2023-01-03T00:45:36.021Z,0.00
2023-01-03T00:46:36.030Z,0.00
2023-01-03T00:47:35.889Z,0.00
2023-01-03T00:48:35.881Z,0.00
2023-01-03T00:49:35.871Z,0.00
2023-01-03T00:50:35.876Z,0.00
2023-01-03T00:51:35.852Z,0.00
2023-01-03T00:52:35.851Z,0.00
2023-01-03T00:53:35.832Z,0.00
2023-01-03T00:54:35.833Z,0.00
2023-01-03T00:55:35.830Z,0.00
2023-01-03T00:56:35.895Z,0.00
2023-01-03T00:57:35.802Z,0.00
2023-01-03T00:58:35.789Z,0.00
2023-01-03T00:59:35.784Z,0.00
2023-01-03T01:00:35.787Z,0.00
2023-01-03T01:01:43.997Z,0.00
2023-01-03T01:02:37.936Z,0.00
2023-01-03T01:03:35.825Z,0.00
2023-01-03T01:04:35.743Z,0.00
2023-01-03T01:05:35.742Z,0.00
2023-01-03T01:06:35.720Z,0.00
2023-01-03T01:07:35.714Z,0.00
2023-01-03T01:08:35.705Z,0.00
2023-01-03T01:09:35.715Z,0.00
2023-01-03T01:10:35.708Z,0.00
2023-01-03T01:11:35.683Z,0.00
2023-01-03T01:12:35.673Z,0.00
2023-01-03T01:13:35.661Z,0.00
2023-01-03T01:14:35.650Z,0.00
2023-01-03T01:15:35.691Z,0.00
2023-01-03T01:16:36.638Z,0.00
2023-01-03T01:17:35.628Z,0.00
2023-01-03T01:18:35.627Z,0.00
2023-01-03T01:19:35.636Z,0.00
2023-01-03T01:20:35.622Z,0.00
2023-01-03T01:21:35.621Z,0.00
2023-01-03T01:22:35.598Z,0.00
2023-01-03T01:23:35.631Z,0.00
2023-01-03T01:24:35.583Z,0.00
2023-01-03T01:25:35.569Z,0.00
2023-01-03T01:26:35.553Z,0.00
2023-01-03T01:27:35.541Z,0.00
2023-01-03T01:28:35.560Z,0.00
2023-01-03T01:29:35.577Z,0.00
2023-01-03T01:30:35.584Z,0.00
2023-01-03T01:31:35.617Z,0.00
2023-01-03T01:32:35.501Z,0.00
2023-01-03T01:33:35.501Z,0.00
2023-01-03T01:34:35.475Z,0.00
2023-01-03T01:35:36.487Z,0.00
2023-01-03T01:36:35.477Z,0.00
2023-01-03T01:37:35.480Z,0.00
2023-01-03T01:38:35.480Z,0.00
2023-01-03T01:39:35.453Z,0.00
2023-01-03T01:40:35.460Z,0.00
2023-01-03T01:41:35.435Z,0.00
2023-01-03T01:42:35.420Z,0.00
2023-01-03T01:43:35.416Z,0.00
2023-01-03T01:44:35.403Z,0.00
2023-01-03T01:45:35.405Z,0.00
2023-01-03T01:46:35.491Z,0.00
2023-01-03T01:47:35.467Z,0.00
2023-01-03T01:48:36.368Z,0.00
2023-01-03T01:49:35.353Z,0.00
2023-01-03T01:50:35.365Z,0.00
2023-01-03T01:51:35.337Z,0.00
2023-01-03T01:52:35.332Z,0.00
2023-01-03T01:53:35.323Z,0.00
2023-01-03T01:54:35.311Z,0.00
2023-01-03T01:55:35.329Z,0.00
2023-01-03T01:56:35.296Z,0.00
2023-01-03T01:57:35.286Z,0.00
2023-01-03T01:58:35.279Z,0.00
2023-01-03T01:59:35.275Z,0.00
2023-01-03T02:00:35.268Z,0.00
2023-01-03T02:01:35.371Z,0.00
2023-01-03T02:02:35.343Z,0.00
2023-01-03T02:03:35.302Z,0.00
2023-01-03T02:04:35.227Z,0.00
2023-01-03T02:05:35.222Z,0.00
2023-01-03T02:06:35.218Z,0.00
2023-01-03T02:07:35.198Z,0.00
2023-01-03T02:08:35.188Z,0.00
2023-01-03T02:09:35.183Z,0.00
2023-01-03T02:10:35.255Z,0.00
2023-01-03T02:11:35.162Z,0.00
2023-01-03T02:12:35.162Z,0.00
2023-01-03T02:13:35.150Z,0.00
2023-01-03T02:14:35.139Z,0.00
2023-01-03T02:15:35.184Z,0.00
2023-01-03T02:16:35.184Z,0.00
2023-01-03T02:17:35.118Z,0.00
2023-01-03T02:18:35.109Z,0.00
2023-01-03T02:19:35.197Z,0.00
2023-01-03T02:20:35.093Z,0.00
2023-01-03T02:21:35.093Z,0.00
2023-01-03T02:22:35.070Z,0.00
2023-01-03T02:23:35.059Z,0.00
2023-01-03T02:24:35.056Z,0.00
2023-01-03T02:25:35.042Z,0.00
2023-01-03T02:26:36.040Z,0.00
2023-01-03T02:27:36.023Z,0.00
2023-01-03T02:28:35.020Z,0.00
2023-01-03T02:29:35.026Z,0.00
2023-01-03T02:30:35.004Z,0.00
2023-01-03T02:31:35.074Z,0.00
2023-01-03T02:32:34.986Z,0.00
2023-01-03T02:33:34.974Z,0.00
2023-01-03T02:34:34.965Z,0.00
2023-01-03T02:35:34.974Z,0.00
2023-01-03T02:36:34.960Z,0.00
2023-01-03T02:37:34.945Z,0.00
2023-01-03T02:38:34.948Z,0.00
2023-01-03T02:39:40.927Z,0.00
2023-01-03T02:40:35.926Z,0.00
2023-01-03T02:41:34.916Z,0.00
2023-01-03T02:42:34.917Z,0.00
2023-01-03T02:43:34.899Z,0.00
2023-01-03T02:44:34.881Z,0.00
2023-01-03T02:45:34.912Z,0.00
2023-01-03T02:46:35.031Z,0.00
2023-01-03T02:47:34.853Z,0.00
2023-01-03T02:48:34.843Z,0.00
2023-01-03T02:49:34.837Z,0.00
2023-01-03T02:50:34.826Z,0.00
2023-01-03T02:51:34.829Z,0.00
2023-01-03T02:52:34.805Z,0.00
2023-01-03T02:53:34.808Z,0.00
2023-01-03T02:54:34.788Z,0.00
2023-01-03T02:55:34.783Z,0.00
2023-01-03T02:56:34.783Z,0.00
2023-01-03T02:57:34.767Z,0.00
2023-01-03T02:58:34.753Z,0.00
2023-01-03T02:59:34.744Z,0.00
2023-01-03T03:00:34.751Z,0.00
2023-01-03T03:01:34.821Z,0.00
2023-01-03T03:02:34.905Z,0.00
2023-01-03T03:03:34.733Z,0.00
2023-01-03T03:04:34.697Z,0.00
2023-01-03T03:05:34.706Z,0.00
2023-01-03T03:06:34.697Z,0.00
2023-01-03T03:07:34.685Z,0.00
2023-01-03T03:08:34.669Z,0.00
2023-01-03T03:09:34.669Z,0.00
2023-01-03T03:10:34.648Z,0.00
2023-01-03T03:11:34.674Z,0.00
2023-01-03T03:12:34.656Z,0.00
2023-01-03T03:13:34.633Z,0.00
2023-01-03T03:14:34.624Z,0.00
2023-01-03T03:15:34.602Z,0.00
2023-01-03T03:16:34.706Z,0.00
2023-01-03T03:17:34.587Z,0.00
2023-01-03T03:18:34.586Z,0.00
2023-01-03T03:19:34.575Z,0.00
2023-01-03T03:20:34.556Z,0.00
2023-01-03T03:21:34.578Z,0.00
2023-01-03T03:22:34.556Z,0.00
2023-01-03T03:23:34.533Z,0.00
2023-01-03T03:24:34.522Z,0.00
2023-01-03T03:25:34.518Z,0.00
2023-01-03T03:26:34.520Z,0.00
2023-01-03T03:27:34.501Z,0.00
2023-01-03T03:28:34.501Z,0.00
2023-01-03T03:29:34.489Z,0.00
2023-01-03T03:30:34.612Z,0.00
2023-01-03T03:31:34.582Z,0.00
2023-01-03T03:32:34.452Z,0.00
2023-01-03T03:33:34.459Z,0.00
2023-01-03T03:34:34.463Z,0.00
2023-01-03T03:35:34.439Z,0.00
2023-01-03T03:36:34.444Z,0.00
2023-01-03T03:37:34.421Z,0.00
2023-01-03T03:38:34.406Z,0.00
2023-01-03T03:39:34.395Z,0.00
2023-01-03T03:40:34.388Z,0.00
2023-01-03T03:41:34.397Z,0.00
2023-01-03T03:42:34.401Z,0.00
2023-01-03T03:43:34.598Z,0.00
2023-01-03T03:44:34.453Z,0.00
2023-01-03T03:45:34.350Z,0.00
2023-01-03T03:46:34.405Z,0.00
2023-01-03T03:47:34.329Z,0.00
2023-01-03T03:48:34.322Z,0.00
2023-01-03T03:49:34.315Z,0.00
2023-01-03T03:50:34.334Z,0.00
2023-01-03T03:51:34.310Z,0.00
2023-01-03T03:52:34.295Z,0.00
2023-01-03T03:53:34.300Z,0.00
2023-01-03T03:54:34.282Z,0.00
2023-01-03T03:55:34.290Z,0.00
2023-01-03T03:56:34.333Z,0.00
2023-01-03T03:57:34.248Z,0.00
2023-01-03T03:58:34.242Z,0.00
2023-01-03T03:59:34.225Z,0.00
2023-01-03T04:00:34.221Z,0.00
2023-01-03T04:01:34.325Z,0.00
2023-01-03T04:02:34.241Z,0.00
2023-01-03T04:03:34.224Z,0.00
2023-01-03T04:04:34.184Z,0.00
2023-01-03T04:05:34.186Z,0.00
2023-01-03T04:06:34.673Z,0.00
2023-01-03T04:07:34.217Z,0.00
2023-01-03T04:08:34.270Z,0.00
2023-01-03T04:09:34.156Z,0.00
2023-01-03T04:10:37.657Z,0.00
2023-01-03T04:11:35.134Z,0.00
2023-01-03T04:12:34.113Z,0.00
2023-01-03T04:13:34.102Z,0.00
2023-01-03T04:14:34.094Z,0.00
2023-01-03T04:15:34.083Z,0.00
2023-01-03T04:16:34.184Z,0.00
2023-01-03T04:17:34.258Z,0.00
2023-01-03T04:18:34.281Z,0.00
2023-01-03T04:19:34.086Z,0.00
2023-01-03T04:20:34.046Z,0.00
2023-01-03T04:21:34.049Z,0.00
2023-01-03T04:22:34.033Z,0.00
2023-01-03T04:23:34.019Z,0.00
2023-01-03T04:24:34.013Z,0.00
2023-01-03T04:25:34.011Z,0.00
2023-01-03T04:26:34.005Z,0.00
2023-01-03T04:27:33.989Z,0.00
2023-01-03T04:28:33.979Z,0.00
2023-01-03T04:29:39.016Z,0.00
2023-01-03T04:30:36.627Z,0.00
2023-01-03T04:31:34.087Z,0.00
2023-01-03T04:32:33.940Z,0.00
2023-01-03T04:33:33.949Z,0.00
2023-01-03T04:34:33.925Z,0.00
2023-01-03T04:35:33.917Z,0.00
2023-01-03T04:36:33.924Z,0.00
2023-01-03T04:37:33.916Z,0.00
2023-01-03T04:38:33.881Z,0.00
2023-01-03T04:39:34.881Z,0.00
2023-01-03T04:40:33.874Z,0.00
2023-01-03T04:41:33.884Z,0.00
2023-01-03T04:42:34.535Z,0.00
2023-01-03T04:43:34.633Z,0.00
2023-01-03T04:44:33.834Z,0.00
2023-01-03T04:45:33.863Z,0.00
2023-01-03T04:46:33.832Z,0.00
2023-01-03T04:47:33.805Z,0.00
2023-01-03T04:48:33.801Z,0.00
2023-01-03T04:49:33.791Z,0.00
2023-01-03T04:50:33.782Z,0.00
2023-01-03T04:51:33.787Z,0.00
2023-01-03T04:52:33.762Z,0.00
2023-01-03T04:53:33.760Z,0.00
2023-01-03T04:54:33.887Z,0.00
2023-01-03T04:55:34.630Z,0.00
2023-01-03T04:56:33.750Z,0.00
2023-01-03T04:57:33.727Z,0.00
2023-01-03T04:58:33.714Z,0.00
2023-01-03T04:59:33.707Z,0.00
2023-01-03T05:00:33.701Z,0.00
2023-01-03T05:01:33.822Z,0.00
2023-01-03T05:02:33.703Z,0.00
2023-01-03T05:03:33.677Z,0.00
2023-01-03T05:04:33.717Z,0.00
2023-01-03T05:05:33.650Z,0.00
2023-01-03T05:06:33.717Z,0.00
2023-01-03T05:07:33.707Z,0.00
2023-01-03T05:08:33.623Z,0.00
2023-01-03T05:09:33.614Z,0.00
2023-01-03T05:10:33.606Z,0.00
2023-01-03T05:11:33.605Z,0.00
2023-01-03T05:12:33.599Z,0.00
2023-01-03T05:13:33.592Z,0.00
2023-01-03T05:14:33.584Z,0.00
2023-01-03T05:15:33.567Z,0.00
2023-01-03T05:16:33.622Z,0.00
2023-01-03T05:17:33.549Z,0.00
2023-01-03T05:18:33.550Z,0.00
2023-01-03T05:19:33.621Z,0.00
2023-01-03T05:20:33.537Z,0.00
2023-01-03T05:21:33.527Z,0.00
2023-01-03T05:22:33.511Z,0.00
2023-01-03T05:23:33.503Z,0.00
2023-01-03T05:24:33.491Z,0.00
2023-01-03T05:25:33.485Z,0.00
2023-01-03T05:26:33.474Z,0.00
2023-01-03T05:27:33.480Z,0.00
2023-01-03T05:28:33.459Z,0.00
2023-01-03T05:29:33.451Z,0.00
2023-01-03T05:30:33.465Z,0.00
2023-01-03T05:31:33.676Z,0.00
2023-01-03T05:32:34.594Z,0.00
2023-01-03T05:33:33.420Z,0.00
2023-01-03T05:34:33.411Z,0.00
2023-01-03T05:35:33.413Z,0.00
2023-01-03T05:36:33.388Z,0.00
2023-01-03T05:37:33.450Z,0.00
2023-01-03T05:38:33.385Z,0.00
2023-01-03T05:39:33.364Z,0.00
2023-01-03T05:40:39.297Z,0.00
2023-01-03T05:41:35.357Z,0.00
2023-01-03T05:42:33.356Z,0.00
2023-01-03T05:43:33.444Z,0.00
2023-01-03T05:44:33.371Z,0.00
2023-01-03T05:45:34.432Z,0.00
2023-01-03T05:46:33.454Z,0.00
2023-01-03T05:47:33.307Z,0.00
2023-01-03T05:48:33.285Z,0.00
2023-01-03T05:49:33.277Z,0.00
2023-01-03T05:50:33.271Z,0.00
2023-01-03T05:51:33.273Z,0.00
2023-01-03T05:52:33.260Z,0.00
2023-01-03T05:53:33.248Z,0.00
2023-01-03T05:54:33.236Z,0.00
2023-01-03T05:55:33.246Z,0.00
2023-01-03T05:56:33.217Z,0.00
2023-01-03T05:57:35.690Z,0.00
2023-01-03T05:58:34.250Z,0.00
2023-01-03T05:59:33.191Z,0.00
2023-01-03T06:00:33.183Z,0.00
2023-01-03T06:01:33.222Z,0.00
2023-01-03T06:02:33.218Z,0.00
2023-01-03T06:03:33.151Z,0.00
2023-01-03T06:04:33.248Z,0.00
2023-01-03T06:05:33.130Z,0.00
2023-01-03T06:06:34.178Z,0.00
2023-01-03T06:07:33.128Z,0.00
2023-01-03T06:08:33.111Z,0.00
2023-01-03T06:09:33.105Z,0.00
2023-01-03T06:10:33.088Z,0.00
2023-01-03T06:11:33.093Z,0.00
2023-01-03T06:12:33.104Z,0.00
2023-01-03T06:13:33.069Z,0.00
2023-01-03T06:14:33.061Z,0.00
2023-01-03T06:15:33.048Z,0.00
2023-01-03T06:16:33.154Z,0.00
2023-01-03T06:17:34.065Z,0.00
2023-01-03T06:18:33.072Z,0.00
2023-01-03T06:19:33.143Z,0.00
2023-01-03T06:20:33.002Z,0.00
2023-01-03T06:21:33.009Z,0.00
2023-01-03T06:22:33.000Z,0.00
2023-01-03T06:23:32.978Z,0.00
2023-01-03T06:24:32.963Z,0.00
2023-01-03T06:25:32.953Z,0.00
2023-01-03T06:26:32.945Z,0.00
2023-01-03T06:27:32.949Z,0.00
2023-01-03T06:28:32.940Z,0.00
2023-01-03T06:29:32.935Z,0.00
2023-01-03T06:30:33.054Z,0.00
2023-01-03T06:31:33.079Z,0.00
2023-01-03T06:32:32.920Z,0.00
2023-01-03T06:33:32.898Z,0.00
2023-01-03T06:34:32.888Z,0.00
2023-01-03T06:35:32.867Z,0.00
2023-01-03T06:36:32.856Z,0.00
2023-01-03T06:37:32.891Z,0.00
2023-01-03T06:38:32.838Z,0.00
2023-01-03T06:39:32.829Z,0.00
2023-01-03T06:40:39.397Z,0.00
2023-01-03T06:41:34.817Z,0.00
2023-01-03T06:42:32.870Z,0.00
2023-01-03T06:43:32.981Z,0.00
2023-01-03T06:44:32.783Z,0.00
2023-01-03T06:45:32.812Z,0.00
2023-01-03T06:46:32.939Z,0.00
2023-01-03T06:47:32.765Z,0.00
2023-01-03T06:48:32.747Z,0.00
2023-01-03T06:49:32.737Z,0.00
2023-01-03T06:50:32.742Z,0.00
2023-01-03T06:51:32.720Z,0.00
2023-01-03T06:52:32.722Z,0.00
2023-01-03T06:53:32.704Z,0.00
2023-01-03T06:54:32.698Z,0.00
2023-01-03T06:55:32.778Z,4.00
2023-01-03T06:56:32.868Z,4.00
2023-01-03T06:57:32.686Z,0.00
2023-01-03T06:58:32.700Z,0.00
2023-01-03T06:59:32.683Z,4.00
2023-01-03T07:00:32.652Z,4.00
2023-01-03T07:01:32.702Z,4.00
2023-01-03T07:02:32.738Z,4.00
2023-01-03T07:03:32.628Z,8.00
2023-01-03T07:04:32.647Z,8.00
2023-01-03T07:05:32.599Z,8.00
2023-01-03T07:06:32.593Z,8.00
2023-01-03T07:07:33.532Z,12.00
2023-01-03T07:08:33.694Z,12.00
2023-01-03T07:09:32.565Z,16.00
2023-01-03T07:10:32.555Z,16.00
2023-01-03T07:11:32.561Z,20.00
2023-01-03T07:12:32.559Z,24.00
2023-01-03T07:13:32.524Z,28.00
2023-01-03T07:14:32.531Z,32.00
2023-01-03T07:15:32.606Z,32.00
2023-01-03T07:16:32.572Z,36.00
2023-01-03T07:17:32.509Z,40.00
2023-01-03T07:18:32.487Z,44.00
2023-01-03T07:19:33.509Z,52.00
2023-01-03T07:20:33.074Z,56.00
2023-01-03T07:21:32.467Z,60.00
2023-01-03T07:22:32.462Z,68.00
2023-01-03T07:23:32.447Z,72.00
2023-01-03T07:24:32.435Z,76.00
2023-01-03T07:25:32.427Z,84.00
2023-01-03T07:26:32.415Z,92.00
2023-01-03T07:27:32.420Z,100.00
2023-01-03T07:28:32.395Z,108.00
2023-01-03T07:29:32.394Z,112.00
2023-01-03T07:30:32.382Z,120.00
2023-01-03T07:31:32.637Z,128.00
2023-01-03T07:32:32.391Z,140.00
2023-01-03T07:33:32.360Z,148.00
2023-01-03T07:34:32.371Z,156.00
2023-01-03T07:35:32.345Z,168.00
2023-01-03T07:36:32.340Z,176.00
2023-01-03T07:37:32.337Z,188.00
2023-01-03T07:38:32.361Z,196.00
2023-01-03T07:39:32.303Z,208.00
2023-01-03T07:40:32.325Z,220.00
2023-01-03T07:41:32.291Z,228.00
2023-01-03T07:42:32.295Z,240.00
2023-01-03T07:43:32.313Z,256.00
2023-01-03T07:44:33.065Z,264.00
2023-01-03T07:45:32.252Z,272.00
2023-01-03T07:46:32.294Z,292.00
2023-01-03T07:47:32.248Z,304.00
2023-01-03T07:48:32.287Z,324.00
2023-01-03T07:49:32.225Z,344.00
2023-01-03T07:50:32.209Z,364.00
2023-01-03T07:51:32.202Z,396.00
2023-01-03T07:52:32.203Z,404.00
2023-01-03T07:53:32.189Z,408.00
2023-01-03T07:54:32.175Z,452.00
2023-01-03T07:55:32.387Z,440.00
2023-01-03T07:56:32.306Z,452.00
2023-01-03T07:57:32.154Z,532.00
2023-01-03T07:58:32.213Z,1528.00
2023-01-03T07:59:32.139Z,1100.00
2023-01-03T08:00:32.157Z,720.00
2023-01-03T08:01:32.202Z,728.00
2023-01-03T08:02:32.226Z,756.00
2023-01-03T08:03:32.104Z,788.00
2023-01-03T08:04:32.126Z,820.00
2023-01-03T08:05:32.080Z,840.00
2023-01-03T08:06:32.094Z,868.00
2023-01-03T08:07:32.271Z,896.00
2023-01-03T08:08:32.082Z,924.00
2023-01-03T08:09:32.047Z,960.00
2023-01-03T08:10:32.045Z,988.00
2023-01-03T08:11:32.040Z,1024.00
2023-01-03T08:12:32.032Z,1080.00
2023-01-03T08:13:32.002Z,1364.00
2023-01-03T08:14:33.009Z,1488.00
2023-01-03T08:15:32.165Z,1240.00
2023-01-03T08:16:32.167Z,1240.00
2023-01-03T08:17:31.990Z,1296.00
2023-01-03T08:18:31.968Z,1332.00
2023-01-03T08:19:31.961Z,1372.00
2023-01-03T08:20:31.967Z,1436.00
2023-01-03T08:21:32.938Z,1496.00
2023-01-03T08:22:31.945Z,1564.00
2023-01-03T08:23:31.925Z,1624.00
2023-01-03T08:24:31.918Z,1696.00
2023-01-03T08:25:31.910Z,1768.00
2023-01-03T08:26:31.905Z,1864.00
2023-01-03T08:27:31.982Z,1964.00
2023-01-03T08:28:32.044Z,2044.00
2023-01-03T08:29:31.875Z,2120.00
2023-01-03T08:30:31.871Z,2192.00
2023-01-03T08:31:31.955Z,2248.00
2023-01-03T08:32:31.931Z,2292.00
2023-01-03T08:33:31.844Z,2336.00
2023-01-03T08:34:31.844Z,2468.00
2023-01-03T08:35:31.825Z,2620.00
2023-01-03T08:36:31.813Z,3012.00
2023-01-03T08:37:31.813Z,3740.00
2023-01-03T08:38:31.812Z,5680.00
2023-01-03T08:39:31.816Z,8952.00
2023-01-03T08:40:36.715Z,11796.00
2023-01-03T08:41:32.791Z,15680.00
2023-01-03T08:42:31.773Z,14400.00
2023-01-03T08:43:31.777Z,12148.00
2023-01-03T08:44:31.814Z,9380.00
2023-01-03T08:45:31.749Z,5360.00
2023-01-03T08:46:31.795Z,3772.00
2023-01-03T08:47:31.741Z,3300.00
2023-01-03T08:48:31.742Z,3560.00
2023-01-03T08:49:31.709Z,4324.00
2023-01-03T08:50:31.703Z,9252.00
2023-01-03T08:51:31.708Z,16768.00
2023-01-03T08:52:34.984Z,30496.00
2023-01-03T08:53:32.693Z,45632.00
2023-01-03T08:54:31.670Z,41728.00
2023-01-03T08:55:31.661Z,27968.00
2023-01-03T08:56:31.652Z,12820.00
2023-01-03T08:57:31.639Z,3336.00
2023-01-03T08:58:31.659Z,3008.00
2023-01-03T08:59:31.629Z,3060.00
2023-01-03T09:00:31.613Z,4592.00
2023-01-03T09:01:31.704Z,17216.00
2023-01-03T09:02:31.794Z,26368.00
2023-01-03T09:03:31.814Z,16192.00
2023-01-03T09:04:31.577Z,4436.00
2023-01-03T09:05:31.578Z,3656.00
2023-01-03T09:06:31.569Z,3552.00
2023-01-03T09:07:31.569Z,4436.00
2023-01-03T09:08:31.574Z,4564.00
2023-01-03T09:09:31.528Z,4064.00
2023-01-03T09:10:31.549Z,4236.00
2023-01-03T09:11:31.525Z,4568.00
2023-01-03T09:12:31.509Z,4604.00
2023-01-03T09:13:31.512Z,4864.00
2023-01-03T09:14:31.493Z,7084.00
2023-01-03T09:15:31.473Z,21056.00
2023-01-03T09:16:31.524Z,40096.00
2023-01-03T09:17:31.469Z,52768.00
2023-01-03T09:18:31.455Z,57536.00
2023-01-03T09:19:31.441Z,56160.00
2023-01-03T09:20:31.437Z,51744.00
2023-01-03T09:21:31.444Z,55072.00
2023-01-03T09:22:31.421Z,46816.00
2023-01-03T09:23:31.404Z,42560.00
2023-01-03T09:24:31.389Z,56320.00
2023-01-03T09:25:36.815Z,62848.00
2023-01-03T09:26:34.003Z,62336.00
2023-01-03T09:27:31.525Z,62336.00
2023-01-03T09:28:31.364Z,63680.00
2023-01-03T09:29:31.331Z,62912.00
2023-01-03T09:30:31.326Z,64480.00
2023-01-03T09:31:32.212Z,66976.00
2023-01-03T09:32:31.324Z,67776.00
2023-01-03T09:33:31.318Z,67296.00
2023-01-03T09:34:31.336Z,67648.00
2023-01-03T09:35:31.276Z,68448.00
2023-01-03T09:36:31.286Z,70240.00
2023-01-03T09:37:31.444Z,69568.00
2023-01-03T09:38:31.271Z,70720.00
2023-01-03T09:39:31.314Z,70944.00
2023-01-03T09:40:31.247Z,68448.00
2023-01-03T09:41:31.226Z,70624.00
2023-01-03T09:42:31.218Z,70080.00
2023-01-03T09:43:31.217Z,70912.00
2023-01-03T09:44:31.199Z,68096.00
2023-01-03T09:45:31.183Z,69696.00
2023-01-03T09:46:31.269Z,73568.00
2023-01-03T09:47:31.165Z,72896.00
2023-01-03T09:48:31.173Z,73408.00
2023-01-03T09:49:31.144Z,74976.00
2023-01-03T09:50:50.844Z,74912.00
2023-01-03T09:51:33.284Z,75232.00
2023-01-03T09:52:31.127Z,76704.00
2023-01-03T09:53:31.129Z,76992.00
2023-01-03T09:54:31.105Z,79456.00
2023-01-03T09:55:31.143Z,80064.00
2023-01-03T09:56:31.077Z,79680.00
2023-01-03T09:57:31.065Z,77344.00
2023-01-03T09:58:31.068Z,76032.00
2023-01-03T09:59:31.066Z,75328.00
2023-01-03T10:00:31.093Z,73024.00
2023-01-03T10:01:31.191Z,73088.00
2023-01-03T10:02:31.213Z,76000.00
2023-01-03T10:03:31.255Z,76224.00
2023-01-03T10:04:31.037Z,73632.00
2023-01-03T10:05:30.991Z,72256.00
2023-01-03T10:06:30.999Z,70880.00
2023-01-03T10:07:30.976Z,74944.00
2023-01-03T10:08:30.973Z,77344.00
2023-01-03T10:09:31.543Z,79296.00
2023-01-03T10:10:30.945Z,80672.00
2023-01-03T10:11:30.956Z,79744.00
2023-01-03T10:12:30.925Z,80096.00
2023-01-03T10:13:30.949Z,82880.00
2023-01-03T10:14:30.913Z,85440.00
2023-01-03T10:15:30.907Z,82464.00
2023-01-03T10:16:30.990Z,81856.00
2023-01-03T10:17:30.902Z,79968.00
2023-01-03T10:18:30.885Z,38240.00
2023-01-03T10:19:30.870Z,8360.00
2023-01-03T10:20:33.261Z,6404.00
2023-01-03T10:21:31.940Z,5536.00
2023-01-03T10:22:30.847Z,4748.00
2023-01-03T10:23:30.848Z,4332.00
2023-01-03T10:24:30.829Z,3940.00
2023-01-03T10:25:30.815Z,3664.00
2023-01-03T10:26:32.944Z,3752.00
2023-01-03T10:27:31.800Z,3620.00
2023-01-03T10:28:30.812Z,3540.00
2023-01-03T10:29:30.779Z,3120.00
2023-01-03T10:30:30.767Z,2892.00
2023-01-03T10:31:30.784Z,3016.00
2023-01-03T10:32:30.834Z,2644.00
2023-01-03T10:33:30.776Z,2408.00
2023-01-03T10:34:30.732Z,2268.00
2023-01-03T10:35:30.723Z,2372.00
2023-01-03T10:36:30.718Z,2812.00
2023-01-03T10:37:30.711Z,2668.00
2023-01-03T10:38:30.708Z,2328.00
2023-01-03T10:39:30.693Z,2576.00
2023-01-03T10:40:30.800Z,2800.00
2023-01-03T10:41:30.664Z,3552.00
2023-01-03T10:42:30.682Z,3004.00
2023-01-03T10:43:30.668Z,2856.00
2023-01-03T10:44:30.685Z,3168.00
2023-01-03T10:45:34.677Z,2276.00
2023-01-03T10:46:32.707Z,2152.00
2023-01-03T10:47:30.608Z,2196.00
2023-01-03T10:48:36.259Z,2572.00
2023-01-03T10:49:32.596Z,2180.00
2023-01-03T10:50:30.611Z,2164.00
2023-01-03T10:51:30.566Z,2676.00
2023-01-03T10:52:30.726Z,2944.00
2023-01-03T10:53:30.622Z,2844.00
2023-01-03T10:54:30.536Z,2960.00
2023-01-03T10:55:30.539Z,2736.00
2023-01-03T10:56:30.544Z,3156.00
2023-01-03T10:57:30.522Z,3284.00
2023-01-03T10:58:36.077Z,2636.00
2023-01-03T10:59:32.581Z,2292.00
2023-01-03T11:00:30.562Z,2428.00
2023-01-03T11:01:30.633Z,2608.00
2023-01-03T11:02:30.608Z,2436.00
2023-01-03T11:03:30.509Z,2624.00
2023-01-03T11:04:30.441Z,2648.00
2023-01-03T11:05:30.425Z,2812.00
2023-01-03T11:06:30.441Z,3008.00
2023-01-03T11:07:30.407Z,2708.00
2023-01-03T11:08:30.409Z,2496.00
2023-01-03T11:09:30.379Z,2684.00
2023-01-03T11:10:30.425Z,2184.00
2023-01-03T11:11:30.371Z,1972.00
2023-01-03T11:12:30.507Z,1988.00
2023-01-03T11:13:30.364Z,2720.00
2023-01-03T11:14:30.340Z,2376.00
2023-01-03T11:15:37.559Z,2972.00
2023-01-03T11:16:32.340Z,3144.00
2023-01-03T11:17:30.302Z,3564.00
2023-01-03T11:18:30.355Z,3076.00
2023-01-03T11:19:30.287Z,2960.00
2023-01-03T11:20:30.275Z,2908.00
2023-01-03T11:21:30.269Z,3356.00
2023-01-03T11:22:35.547Z,2892.00
2023-01-03T11:23:32.257Z,2452.00
2023-01-03T11:24:30.254Z,2344.00
2023-01-03T11:25:30.223Z,2304.00
2023-01-03T11:26:30.218Z,2512.00
2023-01-03T11:27:30.207Z,2408.00
2023-01-03T11:28:30.211Z,2700.00
2023-01-03T11:29:30.184Z,2268.00
2023-01-03T11:30:30.181Z,1940.00
2023-01-03T11:31:30.187Z,2360.00
2023-01-03T11:32:30.160Z,2416.00
2023-01-03T11:33:30.144Z,1620.00
2023-01-03T11:34:48.135Z,1544.00
2023-01-03T11:35:32.135Z,2056.00
2023-01-03T11:36:30.189Z,2560.00
2023-01-03T11:37:31.070Z,2548.00
2023-01-03T11:38:30.217Z,2092.00
2023-01-03T11:39:30.159Z,2060.00
2023-01-03T11:40:30.081Z,2064.00
2023-01-03T11:41:30.134Z,2520.00
2023-01-03T11:42:30.055Z,2728.00
2023-01-03T11:43:30.058Z,2212.00
2023-01-03T11:44:30.055Z,2716.00
2023-01-03T11:45:30.045Z,2764.00
2023-01-03T11:46:30.075Z,3128.00
2023-01-03T11:47:30.078Z,2744.00
2023-01-03T11:48:29.994Z,2632.00
2023-01-03T11:49:31.008Z,2592.00
2023-01-03T11:50:29.983Z,2432.00
2023-01-03T11:51:29.973Z,2288.00
2023-01-03T11:52:29.963Z,2080.00
2023-01-03T11:53:29.954Z,2308.00
2023-01-03T11:54:29.960Z,2688.00
2023-01-03T11:55:29.946Z,3200.00
2023-01-03T11:56:29.941Z,3832.00
2023-01-03T11:57:30.520Z,3604.00
2023-01-03T11:58:30.187Z,3728.00
2023-01-03T11:59:29.997Z,3752.00
2023-01-03T12:00:29.891Z,3716.00
2023-01-03T12:01:33.987Z,3488.00
2023-01-03T12:02:31.887Z,3084.00
2023-01-03T12:03:30.004Z,3132.00
2023-01-03T12:04:29.888Z,3248.00
2023-01-03T12:05:29.831Z,3164.00
2023-01-03T12:06:29.828Z,2952.00
2023-01-03T12:08:31.812Z,2600.00
2023-01-03T12:09:29.846Z,2432.00
2023-01-03T12:10:29.874Z,2220.00
2023-01-03T12:11:29.793Z,2184.00
2023-01-03T12:12:29.775Z,2148.00
2023-01-03T12:13:30.097Z,2076.00
2023-01-03T12:14:29.777Z,2144.00
2023-01-03T12:15:29.817Z,2072.00
2023-01-03T12:16:29.795Z,1968.00
2023-01-03T12:17:29.739Z,1960.00
2023-01-03T12:18:29.726Z,2036.00
2023-01-03T12:19:30.043Z,2036.00
2023-01-03T12:20:29.704Z,2056.00
2023-01-03T12:21:29.697Z,1984.00
2023-01-03T12:22:29.680Z,1980.00
2023-01-03T12:23:29.677Z,2368.00
2023-01-03T12:24:29.668Z,2572.00
2023-01-03T12:25:29.679Z,2724.00
2023-01-03T12:26:29.673Z,2624.00
2023-01-03T12:27:29.631Z,2644.00
2023-01-03T12:28:29.620Z,2680.00
2023-01-03T12:29:29.631Z,2724.00
2023-01-03T12:30:29.605Z,2288.00
2023-01-03T12:31:31.921Z,2720.00
2023-01-03T12:32:30.584Z,2660.00
2023-01-03T12:33:29.581Z,2472.00
2023-01-03T12:34:29.573Z,2472.00
2023-01-03T12:35:29.562Z,2552.00
2023-01-03T12:36:29.553Z,2444.00
2023-01-03T12:37:29.539Z,2584.00
2023-01-03T12:38:29.540Z,2740.00
2023-01-03T12:39:33.441Z,2768.00
2023-01-03T12:40:30.522Z,2572.00
2023-01-03T12:41:29.514Z,2528.00
2023-01-03T12:42:29.495Z,2504.00
2023-01-03T12:43:29.486Z,1948.00
2023-01-03T12:44:29.501Z,1868.00
2023-01-03T12:45:34.220Z,1760.00